Viña del mar Airport
SCVM : rendu visible

Aérodrome :











RETROUVEZ-NOUS SUR...

 
LOGIN :

S'inscrire | Disclaimer

   EN    FR    IT 

 









Légende :    VFR   VFR Marginal   IFR   IFR Intensif   IFR Très Intensif
Visi : 
Plafond : 
>= 8 km
>= 3000ft
5 à 8 km
1000 à 3000 ft
1500m à 5 km
500 à 1000 ft
800 à 1500m
200 à 500 ft
< 800m
< 200 ft
Symboles :   Orages  Brouillard  Fortes neiges  Fortes précipitations  Vent > 20 kt






- Altitude de l'aérodrome : 461 ft
- Code IATA : KNA


SCVM - Viña del mar

DERNIER METAR :
  • 090800Z 00000KT 9999 OVC030 15/13 Q1016

METARs EXPIRÉS :
  • 090700Z 00000KT 9999 OVC030 15/13 Q1016
  • 090600Z 00000KT 9999 OVC030 15/13 Q1016

TAF TAF SCVM
Valide du 09 à 06h jusqu'au 10 à 06h UTC


090403Z 0906/1006 31004KT 9999 SCT015 BKN025 TX16/0919Z TN10/0911Z
TEMPO 0906/0914 15004KT 3000 BR SCT005 OVC008
BECMG 0915/0917 33008KT FEW010 BKN015
BECMG 0919/0921 CAVOK
BECMG 1002/1004 30004KT SCT010 BKN020



MET'MAP, la Météo Aéronautique d'un coup d'oeil ! - Copyright ORBIFLY Décembre 2007 - Disclaimer

ORBIFLY MET'MAP TEAM :

Programmation & Développement : Alexandra Zaïnal
Sur une idée originale de : Baudouin d'Aumeries
Assistance à la programmation : Marc-Olivier Méhu
Soutien technique & logistique : Manuel Goepfert

Contact : metmap@orbifly.com




SOURCES & CREDITS :

   NOAA       Earth
Advisory